Time;durP1;ratioP1;P1;durP2;ratioP2;P2;SDS_P1;SDS_P2;PMS_P1;PMS_P2;Temp;Humidity;BMP_temperature;BMP_pressure;BME280_temperature;BME280_humidity;BME280_pressure;Samples;Min_cycle;Max_cycle;Signal;HPM_P1;HPM_P2
2022/04/25 00:01:53;;;;;;;5.80;4.93;;;11.20;99.90;;;;;;5111279;28;20270;-68
2022/04/25 00:04:19;;;;;;;5.83;4.47;;;11.20;99.90;;;;;;5110888;28;20856;-68
2022/04/25 00:06:47;;;;;;;5.73;4.93;;;11.00;99.90;;;;;;5105680;28;20281;-68
2022/04/25 00:09:14;;;;;;;5.30;4.77;;;11.00;99.90;;;;;;5090221;28;21156;-68
2022/04/25 00:11:42;;;;;;;7.17;5.00;;;11.00;99.90;;;;;;5106944;28;21030;-69
2022/04/25 00:14:09;;;;;;;5.80;5.20;;;11.10;99.90;;;;;;5110607;28;20259;-69
2022/04/25 00:16:42;;;;;;;8.60;4.77;;;11.10;99.90;;;;;;5111109;28;20236;-69
2022/04/25 00:19:08;;;;;;;8.30;5.13;;;11.00;99.90;;;;;;5110955;28;20213;-69
2022/04/25 00:21:35;;;;;;;8.23;4.87;;;11.00;99.90;;;;;;5110847;28;20264;-69
2022/04/25 00:24:02;;;;;;;5.03;4.40;;;11.00;99.90;;;;;;5110378;28;20628;-69
2022/04/25 00:26:28;;;;;;;6.83;4.67;;;11.00;99.90;;;;;;5110547;28;20210;-69
2022/04/25 00:28:56;;;;;;;6.83;5.10;;;11.00;99.90;;;;;;5109934;28;20664;-69
2022/04/25 00:31:23;;;;;;;5.93;4.60;;;11.00;99.90;;;;;;5110504;28;20202;-69
2022/04/25 00:33:49;;;;;;;7.90;5.00;;;11.00;99.90;;;;;;5110878;28;20228;-69
2022/04/25 00:36:31;;;;;;;5.53;4.80;;;11.00;99.90;;;;;;5110402;28;20614;-69
2022/04/25 00:38:58;;;;;;;8.17;4.97;;;10.80;99.90;;;;;;5109888;28;20229;-69
2022/04/25 00:41:25;;;;;;;5.70;5.20;;;10.80;99.90;;;;;;5110417;28;20672;-69
2022/04/25 00:43:56;;;;;;;9.20;5.37;;;10.80;99.90;;;;;;5110047;28;20695;-69
2022/04/25 00:46:27;;;;;;;7.37;5.00;;;10.80;99.90;;;;;;5110672;28;20198;-69
2022/04/25 00:48:54;;;;;;;6.63;4.90;;;10.90;99.90;;;;;;5097544;28;20214;-69
2022/04/25 00:51:26;;;;;;;7.93;5.47;;;10.80;99.90;;;;;;5095455;28;20261;-69
2022/04/25 00:53:53;;;;;;;6.03;5.10;;;10.80;99.90;;;;;;5098114;28;20666;-69
2022/04/25 00:56:29;;;;;;;8.70;5.80;;;10.80;99.90;;;;;;5090044;28;20218;-69
2022/04/25 00:58:57;;;;;;;7.27;5.47;;;10.80;99.90;;;;;;5089571;28;20198;-68
2022/04/25 01:01:31;;;;;;;7.87;5.03;;;10.70;99.90;;;;;;5089868;28;20279;-68
2022/04/25 01:03:58;;;;;;;5.70;5.20;;;10.70;99.90;;;;;;5089610;28;20252;-68
2022/04/25 01:06:28;;;;;;;8.23;5.03;;;10.70;99.90;;;;;;5094906;28;20255;-68
2022/04/25 01:08:54;;;;;;;9.37;4.90;;;10.60;99.90;;;;;;5109959;28;20260;-69
2022/04/25 01:11:22;;;;;;;9.30;5.40;;;10.60;99.90;;;;;;5109997;28;20206;-68
2022/04/25 01:13:49;;;;;;;7.37;5.03;;;10.60;99.90;;;;;;5106805;28;20207;-68
2022/04/25 01:16:32;;;;;;;7.03;5.50;;;10.60;99.90;;;;;;5089397;28;20263;-68
2022/04/25 01:18:58;;;;;;;7.07;5.20;;;10.60;99.90;;;;;;5089505;28;20252;-68
2022/04/25 01:21:39;;;;;;;7.47;5.57;;;10.60;99.90;;;;;;5089140;28;20672;-69
2022/04/25 01:29:38;;;;;;;6.00;5.10;;;10.60;99.90;;;;;;5088917;28;20266;-68
2022/04/25 01:32:05;;;;;;;6.07;5.30;;;10.60;99.90;;;;;;5089060;28;20289;-68
2022/04/25 01:34:36;;;;;;;6.47;5.33;;;10.50;99.90;;;;;;5107911;28;20202;-68
2022/04/25 01:37:05;;;;;;;6.60;5.90;;;10.60;99.90;;;;;;5109335;28;20226;-68
2022/04/25 01:39:34;;;;;;;7.00;6.20;;;10.50;99.90;;;;;;5109427;28;20218;-68
2022/04/25 01:42:00;;;;;;;9.13;5.90;;;10.50;99.90;;;;;;5109065;28;20263;-68
2022/04/25 01:44:27;;;;;;;8.43;6.20;;;10.50;99.90;;;;;;5108260;28;20286;-68
2022/04/25 01:46:54;;;;;;;7.10;6.47;;;10.40;99.90;;;;;;5109353;28;20206;-68
2022/04/25 01:49:20;;;;;;;7.50;6.53;;;10.40;99.90;;;;;;5109133;28;20198;-68
2022/04/25 01:51:47;;;;;;;8.40;6.60;;;10.40;99.90;;;;;;5109098;28;20206;-68
2022/04/25 01:54:14;;;;;;;8.33;6.47;;;10.40;99.90;;;;;;5109147;28;20222;-68
2022/04/25 01:56:42;;;;;;;7.63;6.13;;;10.50;99.90;;;;;;5109236;28;20237;-68
2022/04/25 01:59:09;;;;;;;8.27;6.20;;;10.50;99.90;;;;;;5108572;28;20560;-68
2022/04/25 02:01:35;;;;;;;7.90;6.60;;;10.50;99.90;;;;;;5108982;28;20206;-68
2022/04/25 02:04:02;;;;;;;9.20;6.13;;;10.50;99.90;;;;;;5108523;28;20295;-68
2022/04/25 02:06:29;;;;;;;7.47;6.13;;;10.50;99.90;;;;;;5108859;28;20194;-68
2022/04/25 02:08:56;;;;;;;7.17;6.43;;;10.50;99.90;;;;;;5108679;28;20202;-68
2022/04/25 02:11:24;;;;;;;7.47;6.13;;;10.50;99.90;;;;;;5108801;28;20293;-68
2022/04/25 02:13:53;;;;;;;6.73;6.10;;;10.40;99.90;;;;;;5108039;28;20301;-68
2022/04/25 02:16:25;;;;;;;8.13;6.13;;;10.40;99.90;;;;;;5108986;28;20572;-68
2022/04/25 02:18:53;;;;;;;7.53;6.53;;;10.40;99.90;;;;;;5108958;28;20210;-68
2022/04/25 02:21:20;;;;;;;6.93;6.23;;;10.30;99.90;;;;;;5108970;28;21078;-67
2022/04/25 02:23:47;;;;;;;7.47;6.03;;;10.30;99.90;;;;;;5108692;28;20226;-68
2022/04/25 02:26:17;;;;;;;8.97;6.73;;;10.30;99.90;;;;;;5108551;28;20225;-68
2022/04/25 02:28:44;;;;;;;7.77;6.60;;;10.30;99.90;;;;;;5108450;28;20251;-67
2022/04/25 02:31:25;;;;;;;8.20;7.40;;;10.20;99.90;;;;;;5103652;28;20681;-68
2022/04/25 02:33:51;;;;;;;7.83;6.43;;;10.20;99.90;;;;;;5086158;28;20571;-68
2022/04/25 02:36:24;;;;;;;10.00;6.53;;;10.20;99.90;;;;;;5085778;28;20207;-68
2022/04/25 02:38:51;;;;;;;9.93;6.43;;;10.20;99.90;;;;;;5085568;28;20636;-68
2022/04/25 02:41:27;;;;;;;7.33;6.33;;;10.20;99.90;;;;;;5089179;28;20276;-68
2022/04/25 02:43:54;;;;;;;7.10;5.70;;;10.20;99.90;;;;;;5085403;28;20267;-68
2022/04/25 02:46:28;;;;;;;9.10;6.80;;;10.20;99.90;;;;;;5085417;28;20665;-68
2022/04/25 02:48:55;;;;;;;8.97;6.27;;;10.20;99.90;;;;;;5098423;28;20198;-68
2022/04/25 02:51:23;;;;;;;7.10;6.40;;;10.20;99.90;;;;;;5100376;28;20293;-68
2022/04/25 02:53:50;;;;;;;7.33;6.60;;;10.20;99.90;;;;;;5086325;28;20245;-68
2022/04/25 02:56:22;;;;;;;7.30;6.00;;;10.20;99.90;;;;;;5090107;28;20240;-68
2022/04/25 02:58:49;;;;;;;6.90;6.20;;;10.20;99.90;;;;;;5097156;28;20804;-68
2022/04/25 03:01:32;;;;;;;8.13;6.50;;;10.20;99.90;;;;;;5110436;28;20198;-68
2022/04/25 03:03:59;;;;;;;6.90;6.20;;;10.10;99.90;;;;;;5110544;28;20605;-68
2022/04/25 03:06:26;;;;;;;8.17;6.23;;;10.20;99.90;;;;;;5110572;28;20202;-68
2022/04/25 03:08:53;;;;;;;7.63;6.60;;;10.20;99.90;;;;;;5110528;28;20206;-71
2022/04/25 03:11:20;;;;;;;9.10;6.50;;;10.20;99.90;;;;;;5112011;28;20255;-68
2022/04/25 03:13:46;;;;;;;7.00;6.30;;;10.10;99.90;;;;;;5109252;28;20562;-68
2022/04/25 03:16:19;;;;;;;8.87;6.63;;;10.10;99.90;;;;;;5110916;28;20202;-68
2022/04/25 03:18:49;;;;;;;7.67;6.87;;;10.10;99.90;;;;;;5110955;28;20855;-68
2022/04/25 03:21:18;;;;;;;8.27;6.47;;;10.10;99.90;;;;;;5110664;28;20301;-68
2022/04/25 03:23:45;;;;;;;7.70;6.63;;;10.00;99.90;;;;;;5111263;28;20310;-68
2022/04/25 03:26:27;;;;;;;7.77;6.43;;;10.00;99.90;;;;;;5111908;28;20267;-68
2022/04/25 03:28:54;;;;;;;8.73;6.63;;;9.90;99.90;;;;;;5111901;28;20275;-68
2022/04/25 03:31:47;;;;;;;7.27;6.53;;;9.90;99.90;;;;;;5111896;28;20263;-68
2022/04/25 03:34:15;;;;;;;8.67;7.07;;;9.90;99.90;;;;;;5111806;28;20206;-68
2022/04/25 03:36:44;;;;;;;7.30;6.30;;;9.90;99.90;;;;;;5111333;28;20271;-69
2022/04/25 03:39:10;;;;;;;7.77;6.90;;;9.90;99.90;;;;;;5111907;28;20203;-68
2022/04/25 03:41:37;;;;;;;10.73;6.77;;;9.90;99.90;;;;;;5111613;28;20217;-68
2022/04/25 03:44:04;;;;;;;8.77;6.10;;;9.80;99.90;;;;;;5110996;28;20263;-68
2022/04/25 03:46:31;;;;;;;6.50;5.97;;;9.90;99.90;;;;;;5111583;28;20729;-68
2022/04/25 03:48:57;;;;;;;8.07;6.60;;;9.80;99.90;;;;;;5111708;28;20223;-68
2022/04/25 03:51:25;;;;;;;7.70;6.80;;;9.80;99.90;;;;;;5111534;28;20206;-68
2022/04/25 03:53:52;;;;;;;8.17;6.90;;;9.80;99.90;;;;;;5111717;28;20214;-68
2022/04/25 03:59:08;;;;;;;9.27;6.47;;;9.80;99.90;;;;;;5092860;28;20221;-68
2022/04/25 04:04:56;;;;;;;7.20;6.50;;;9.80;99.90;;;;;;5110891;28;20275;-68
2022/04/25 04:07:25;;;;;;;7.10;6.23;;;9.70;99.90;;;;;;5099698;28;20202;-68
2022/04/25 04:09:52;;;;;;;6.60;5.93;;;9.70;99.90;;;;;;5090889;28;20203;-68
2022/04/25 04:12:20;;;;;;;8.83;6.60;;;9.70;99.90;;;;;;5090532;28;20665;-68
2022/04/25 04:14:47;;;;;;;8.27;7.23;;;9.70;99.90;;;;;;5090452;28;20628;-68
2022/04/25 04:17:20;;;;;;;7.87;6.03;;;9.70;99.90;;;;;;5090274;28;20594;-68
2022/04/25 04:19:47;;;;;;;9.90;6.60;;;9.70;99.90;;;;;;5090595;28;20622;-68
2022/04/25 04:22:14;;;;;;;9.30;6.77;;;9.70;99.90;;;;;;5103783;28;20376;-68
2022/04/25 04:24:42;;;;;;;7.70;6.87;;;9.80;99.90;;;;;;5110981;28;20238;-68
2022/04/25 04:27:09;;;;;;;10.00;7.17;;;9.50;99.90;;;;;;5110681;28;20556;-68
2022/04/25 04:29:36;;;;;;;9.33;7.43;;;9.50;99.90;;;;;;5110439;28;20210;-68
2022/04/25 04:32:05;;;;;;;8.23;7.33;;;9.50;99.90;;;;;;5110649;28;20206;-68
2022/04/25 04:34:32;;;;;;;8.50;7.50;;;9.60;99.90;;;;;;5092980;28;20260;-68
2022/04/25 04:37:21;;;;;;;7.50;6.70;;;9.50;99.90;;;;;;5086177;28;20227;-68
2022/04/25 04:39:49;;;;;;;7.20;6.50;;;9.60;99.90;;;;;;5052467;28;20208;-68
2022/04/25 04:42:15;;;;;;;8.43;7.07;;;9.60;99.90;;;;;;5069860;28;20216;-68
2022/04/25 04:44:43;;;;;;;9.57;7.00;;;9.50;99.90;;;;;;5069509;28;20301;-68
2022/04/25 04:47:10;;;;;;;11.07;7.33;;;9.40;99.90;;;;;;5069932;28;20571;-68
2022/04/25 04:49:37;;;;;;;8.97;7.27;;;9.30;99.90;;;;;;5069912;28;20276;-68
2022/04/25 04:52:04;;;;;;;8.50;6.60;;;9.40;99.90;;;;;;5069717;28;20264;-68
2022/04/25 04:54:31;;;;;;;8.40;6.73;;;9.40;99.90;;;;;;5069771;28;20233;-68
2022/04/25 04:56:59;;;;;;;9.27;7.37;;;9.50;99.90;;;;;;5069546;28;20204;-68
2022/04/25 04:59:25;;;;;;;9.20;7.27;;;9.50;99.90;;;;;;5068839;28;20724;-68
2022/04/25 05:01:52;;;;;;;9.50;7.17;;;9.50;99.90;;;;;;5069752;28;20256;-68
2022/04/25 05:04:19;;;;;;;8.63;6.57;;;9.30;99.90;;;;;;5069054;28;20596;-68
2022/04/25 05:06:45;;;;;;;8.47;6.77;;;9.30;99.90;;;;;;5069409;28;20223;-68
2022/04/25 05:09:12;;;;;;;7.93;7.13;;;9.40;99.90;;;;;;5065904;28;20207;-68
2022/04/25 05:11:40;;;;;;;6.83;6.10;;;9.40;99.90;;;;;;5069665;28;20264;-68
2022/04/25 05:14:09;;;;;;;8.67;6.83;;;9.40;99.90;;;;;;5068834;28;20243;-68
2022/04/25 05:16:40;;;;;;;7.50;6.10;;;9.40;99.90;;;;;;5069314;28;20222;-68
2022/04/25 05:19:07;;;;;;;7.63;6.07;;;9.40;99.90;;;;;;5068379;28;20208;-68
2022/04/25 05:21:34;;;;;;;6.77;6.07;;;9.50;99.90;;;;;;5069463;28;20245;-68
2022/04/25 05:24:01;;;;;;;6.17;5.30;;;9.50;99.90;;;;;;5068818;28;20280;-68
2022/04/25 05:26:27;;;;;;;8.00;6.10;;;9.50;99.90;;;;;;5069031;28;20257;-68
2022/04/25 05:28:54;;;;;;;7.47;5.90;;;9.60;99.90;;;;;;5068384;28;20216;-68
2022/04/25 05:31:26;;;;;;;6.67;5.93;;;9.60;99.90;;;;;;5069184;28;20214;-68
2022/04/25 05:33:53;;;;;;;9.23;5.80;;;9.50;99.90;;;;;;5068949;28;20284;-68
2022/04/25 05:36:29;;;;;;;8.30;5.93;;;9.60;99.90;;;;;;5068670;28;20231;-68
2022/04/25 05:38:55;;;;;;;6.27;5.43;;;9.60;99.90;;;;;;5095132;28;20355;-68
2022/04/25 05:41:22;;;;;;;7.17;5.40;;;9.60;99.90;;;;;;5109554;28;20248;-68
2022/04/25 05:43:49;;;;;;;8.37;5.47;;;9.60;99.90;;;;;;5108715;28;20725;-68
2022/04/25 05:46:59;;;;;;;5.90;5.40;;;9.60;99.90;;;;;;5109156;28;20664;-68
2022/04/25 05:52:15;;;;;;;6.23;5.63;;;9.60;99.90;;;;;;5108921;28;20267;-68
2022/04/25 05:54:41;;;;;;;6.43;5.57;;;9.60;99.90;;;;;;5109123;28;20214;-68
2022/04/25 05:57:08;;;;;;;5.57;5.07;;;9.60;99.90;;;;;;5108854;28;20198;-68
2022/04/25 05:59:35;;;;;;;5.93;5.13;;;9.70;99.90;;;;;;5108972;28;20554;-68
2022/04/25 06:02:01;;;;;;;7.30;5.33;;;9.70;99.90;;;;;;5108720;28;20202;-68
2022/04/25 06:04:30;;;;;;;8.27;5.53;;;9.70;99.90;;;;;;5108827;28;20237;-68
2022/04/25 06:06:57;;;;;;;6.33;5.00;;;9.70;99.90;;;;;;5108639;28;20205;-68
2022/04/25 06:09:26;;;;;;;5.93;5.17;;;9.70;99.90;;;;;;5108756;28;20212;-68
2022/04/25 06:12:22;;;;;;;5.87;4.23;;;9.80;99.90;;;;;;5108775;28;20202;-68
2022/04/25 06:14:50;;;;;;;5.10;4.60;;;9.80;99.90;;;;;;5108579;28;20313;-68
2022/04/25 06:17:18;;;;;;;8.10;4.50;;;9.90;99.90;;;;;;5108562;28;20209;-68
2022/04/25 06:19:46;;;;;;;5.90;4.13;;;9.80;99.90;;;;;;5108555;28;20202;-68
2022/04/25 06:22:13;;;;;;;6.03;5.13;;;9.80;99.90;;;;;;5107986;28;20737;-69
2022/04/25 06:24:40;;;;;;;5.50;4.63;;;9.70;99.90;;;;;;5108329;28;20244;-68
2022/04/25 06:27:32;;;;;;;6.60;4.70;;;9.80;99.90;;;;;;5089532;28;20268;-68
2022/04/25 06:29:59;;;;;;;6.03;4.80;;;9.80;99.90;;;;;;5087613;28;20514;-68
2022/04/25 06:33:09;;;;;;;7.17;5.13;;;9.80;99.90;;;;;;5088116;28;20229;-68
2022/04/25 06:35:39;;;;;;;7.43;4.97;;;9.80;99.90;;;;;;5108512;28;20194;-68
2022/04/25 06:38:06;;;;;;;6.23;4.83;;;9.70;99.90;;;;;;5107780;28;20240;-68
2022/04/25 06:40:33;;;;;;;6.83;5.10;;;9.80;99.90;;;;;;5106975;28;20205;-68
2022/04/25 06:43:00;;;;;;;5.30;4.80;;;9.90;99.90;;;;;;5108286;28;20206;-68
2022/04/25 06:45:27;;;;;;;6.33;4.60;;;9.90;99.90;;;;;;5107932;28;20229;-68
2022/04/25 06:47:53;;;;;;;5.40;4.67;;;9.90;99.90;;;;;;5108408;28;20206;-68
2022/04/25 06:50:20;;;;;;;6.50;4.50;;;10.00;99.90;;;;;;5108398;28;20206;-68
2022/04/25 06:52:48;;;;;;;6.70;4.50;;;10.10;99.90;;;;;;5090957;28;20207;-68
2022/04/25 06:55:15;;;;;;;4.87;4.47;;;10.20;99.90;;;;;;5087564;28;20612;-68
2022/04/25 06:57:42;;;;;;;4.93;4.53;;;10.10;99.90;;;;;;5088080;28;20213;-68
2022/04/25 07:00:11;;;;;;;4.97;4.27;;;9.90;99.90;;;;;;5087534;28;20307;-68
2022/04/25 07:02:38;;;;;;;4.83;4.33;;;9.90;99.90;;;;;;5087954;28;20207;-68
2022/04/25 07:05:06;;;;;;;6.47;4.30;;;9.90;99.90;;;;;;5087978;28;20272;-68
2022/04/25 07:07:33;;;;;;;6.37;4.60;;;10.00;99.90;;;;;;5087739;28;20598;-68
2022/04/25 07:10:01;;;;;;;4.20;3.90;;;10.10;99.90;;;;;;5087379;28;20615;-68
2022/04/25 07:12:28;;;;;;;7.90;4.00;;;10.10;99.90;;;;;;5087679;28;20206;-68
2022/04/25 07:18:17;;;;;;;6.97;4.10;;;10.20;99.90;;;;;;5101118;28;20201;-68
2022/04/25 07:20:44;;;;;;;4.70;4.30;;;10.30;99.90;;;;;;5108545;28;20243;-68
2022/04/25 07:28:52;;;;;;;5.43;4.10;;;10.30;99.90;;;;;;5107378;28;20198;-68
2022/04/25 07:31:19;;;;;;;4.47;4.10;;;10.40;99.90;;;;;;5107907;28;20243;-68
2022/04/25 07:33:46;;;;;;;4.90;4.40;;;10.40;99.90;;;;;;5107691;28;20202;-68
2022/04/25 07:36:17;;;;;;;4.47;4.07;;;10.40;99.90;;;;;;5107232;28;20283;-68
2022/04/25 07:38:44;;;;;;;6.60;4.17;;;10.40;99.90;;;;;;5107515;28;20360;-68
2022/04/25 07:41:13;;;;;;;4.53;4.13;;;10.40;99.90;;;;;;5108945;28;20198;-68
2022/04/25 07:43:40;;;;;;;9.20;4.53;;;10.50;99.90;;;;;;5111374;28;20202;-68
2022/04/25 07:46:06;;;;;;;4.60;3.83;;;10.50;99.90;;;;;;5111102;28;20644;-68
2022/04/25 07:48:34;;;;;;;4.73;3.97;;;10.50;99.90;;;;;;5111609;28;20217;-68
2022/04/25 07:51:01;;;;;;;6.23;3.70;;;10.50;99.90;;;;;;5111480;28;20216;-68
2022/04/25 07:53:30;;;;;;;5.33;4.27;;;10.50;99.90;;;;;;5111401;28;20214;-68
2022/04/25 07:55:56;;;;;;;6.23;3.80;;;10.50;99.90;;;;;;5111186;28;20854;-68
2022/04/25 07:58:24;;;;;;;4.90;4.00;;;10.50;99.90;;;;;;5111109;28;20266;-68
2022/04/25 08:00:51;;;;;;;4.00;3.63;;;10.60;99.90;;;;;;5111322;28;20206;-68
2022/04/25 08:03:18;;;;;;;4.20;3.80;;;10.70;99.90;;;;;;5111402;28;20255;-68
2022/04/25 08:05:44;;;;;;;4.47;4.07;;;10.70;99.90;;;;;;5110913;28;21024;-69
2022/04/25 08:08:11;;;;;;;4.53;4.07;;;10.70;99.90;;;;;;5093878;28;20210;-68
2022/04/25 08:10:38;;;;;;;4.00;3.70;;;10.60;99.90;;;;;;5090944;28;20260;-68
2022/04/25 08:18:34;;;;;;;13.67;4.17;;;10.80;99.90;;;;;;5100213;28;20229;-68
2022/04/25 08:21:00;;;;;;;7.80;4.30;;;10.80;99.90;;;;;;5108392;27;20256;-68
2022/04/25 08:23:27;;;;;;;4.07;3.13;;;10.80;99.90;;;;;;5090748;28;20203;-68
2022/04/25 08:25:54;;;;;;;3.70;3.40;;;10.80;99.90;;;;;;5098153;28;20723;-68
2022/04/25 08:28:20;;;;;;;5.77;3.50;;;11.00;99.90;;;;;;5110653;28;20259;-68
2022/04/25 08:30:47;;;;;;;3.73;3.43;;;11.00;99.90;;;;;;5110517;28;20202;-68
2022/04/25 08:33:15;;;;;;;4.70;3.53;;;11.10;99.90;;;;;;5110762;28;20251;-68
2022/04/25 08:35:42;;;;;;;4.83;3.77;;;11.20;99.90;;;;;;5110687;28;20206;-68
2022/04/25 08:38:08;;;;;;;3.70;3.40;;;11.20;99.90;;;;;;5110583;28;20242;-68
2022/04/25 08:40:38;;;;;;;3.93;3.63;;;11.10;99.90;;;;;;5110499;28;20214;-68
2022/04/25 08:43:07;;;;;;;5.07;3.97;;;11.00;99.90;;;;;;5110242;28;20718;-68
2022/04/25 08:45:34;;;;;;;8.63;4.30;;;11.00;99.90;;;;;;5110231;28;20234;-68
2022/04/25 08:48:03;;;;;;;3.87;3.47;;;11.00;99.90;;;;;;5110414;28;20259;-69
2022/04/25 08:50:32;;;;;;;3.70;3.40;;;11.20;99.90;;;;;;5110293;28;20216;-68
2022/04/25 08:52:59;;;;;;;5.80;3.93;;;11.20;99.90;;;;;;5109986;28;20213;-68
2022/04/25 08:55:27;;;;;;;4.00;3.70;;;11.20;99.90;;;;;;5109841;28;20616;-68
2022/04/25 08:57:55;;;;;;;3.50;3.07;;;11.20;99.90;;;;;;5110011;28;20206;-68
2022/04/25 09:00:21;;;;;;;3.93;3.57;;;11.50;99.90;;;;;;5109712;28;20202;-68
2022/04/25 09:02:49;;;;;;;5.20;4.03;;;11.70;99.90;;;;;;5109787;28;20255;-69
2022/04/25 09:05:16;;;;;;;3.67;3.37;;;11.80;99.90;;;;;;5110043;28;20230;-68
2022/04/25 09:07:44;;;;;;;5.47;3.90;;;11.90;99.90;;;;;;5109758;28;20259;-68
2022/04/25 09:10:12;;;;;;;4.23;3.80;;;12.00;99.90;;;;;;5109650;28;20255;-68
2022/04/25 09:12:42;;;;;;;5.50;4.17;;;11.90;99.90;;;;;;5109931;28;20206;-68
2022/04/25 09:15:09;;;;;;;4.03;3.50;;;12.00;99.90;;;;;;5108971;28;20210;-68
2022/04/25 09:17:38;;;;;;;5.73;4.00;;;12.00;99.90;;;;;;5109467;28;20229;-68
2022/04/25 09:20:06;;;;;;;4.13;3.50;;;12.00;99.90;;;;;;5109441;28;20210;-68
2022/04/25 09:22:35;;;;;;;4.60;4.20;;;12.00;99.90;;;;;;5109305;28;20206;-68
2022/04/25 09:25:08;;;;;;;5.50;3.93;;;11.90;99.90;;;;;;5109375;28;20222;-68
2022/04/25 09:27:36;;;;;;;5.77;3.33;;;11.90;99.90;;;;;;5109721;28;20194;-68
2022/04/25 09:30:17;;;;;;;4.90;3.93;;;11.90;99.90;;;;;;5109170;28;20626;-68
2022/04/25 09:32:44;;;;;;;6.27;3.30;;;11.90;99.90;;;;;;5109388;28;20683;-68
2022/04/25 09:35:32;;;;;;;4.57;3.80;;;12.00;99.90;;;;;;5109683;28;20253;-68
2022/04/25 09:38:01;;;;;;;6.10;4.10;;;11.80;99.90;;;;;;5109249;28;20326;-68
2022/04/25 09:40:30;;;;;;;5.13;3.90;;;11.80;99.90;;;;;;5109308;28;20259;-68
2022/04/25 09:43:06;;;;;;;4.97;3.70;;;11.90;99.90;;;;;;5109439;28;20206;-68
2022/04/25 09:45:34;;;;;;;4.87;3.50;;;12.10;99.90;;;;;;5108760;28;20707;-68
2022/04/25 09:48:01;;;;;;;4.60;3.43;;;12.20;99.90;;;;;;5109208;28;20278;-68
2022/04/25 09:50:28;;;;;;;6.20;3.50;;;12.30;99.90;;;;;;5109049;28;20735;-68
2022/04/25 09:52:57;;;;;;;4.53;3.43;;;12.40;99.90;;;;;;5109058;28;20222;-69
2022/04/25 09:55:25;;;;;;;3.43;3.00;;;12.60;99.90;;;;;;5109249;28;20210;-68
2022/04/25 09:57:54;;;;;;;6.27;3.10;;;12.80;99.90;;;;;;5108993;28;20211;-68
2022/04/25 10:00:33;;;;;;;5.07;3.60;;;12.90;99.90;;;;;;5108795;28;20225;-69
2022/04/25 10:03:00;;;;;;;3.40;3.10;;;13.10;99.90;;;;;;5108833;28;20281;-68
2022/04/25 10:05:38;;;;;;;5.27;3.40;;;13.30;99.90;;;;;;5108617;28;20987;-69
2022/04/25 10:08:06;;;;;;;5.27;3.13;;;13.40;99.90;;;;;;5092456;28;20206;-69
2022/04/25 10:10:34;;;;;;;5.33;3.67;;;13.50;99.90;;;;;;5088747;28;20630;-68
2022/04/25 10:13:03;;;;;;;3.77;3.17;;;13.50;99.90;;;;;;5088476;28;20575;-69
2022/04/25 10:15:30;;;;;;;3.30;3.00;;;13.60;99.90;;;;;;5088115;28;20207;-69
2022/04/25 10:17:57;;;;;;;3.40;3.10;;;13.80;99.90;;;;;;5092507;28;20259;-68
2022/04/25 10:20:24;;;;;;;3.33;3.03;;;13.70;99.90;;;;;;5108539;28;20660;-68
2022/04/25 10:22:51;;;;;;;3.90;2.83;;;13.70;99.90;;;;;;5108622;28;20202;-69
2022/04/25 10:25:17;;;;;;;3.27;2.70;;;13.90;99.90;;;;;;5105111;28;20716;-68
2022/04/25 10:27:45;;;;;;;5.37;2.57;;;14.00;99.90;;;;;;5088153;28;20217;-68
2022/04/25 10:30:17;;;;;;;4.23;2.80;;;14.00;99.90;;;;;;5088034;28;20256;-68
2022/04/25 10:32:44;;;;;;;3.20;2.73;;;13.80;99.90;;;;;;5088121;28;20622;-69
2022/04/25 10:35:14;;;;;;;3.47;2.60;;;13.80;99.90;;;;;;5088363;28;20198;-68
2022/04/25 10:37:43;;;;;;;3.03;2.73;;;14.00;99.90;;;;;;5087989;28;20199;-69
2022/04/25 10:40:11;;;;;;;3.20;3.00;;;14.10;99.90;;;;;;5088125;28;20286;-68
2022/04/25 10:45:56;;;;;;;3.53;2.73;;;13.90;99.90;;;;;;5087823;28;20222;-68
2022/04/25 10:48:23;;;;;;;2.53;2.33;;;13.90;99.90;;;;;;5088318;28;20259;-68
2022/04/25 10:51:10;;;;;;;2.70;2.50;;;14.10;99.90;;;;;;5088641;28;20732;-69
2022/04/25 10:54:01;;;;;;;4.77;2.80;;;14.20;99.90;;;;;;5108378;28;20237;-68
2022/04/25 10:56:29;;;;;;;2.50;2.30;;;14.20;99.90;;;;;;5108284;28;20247;-68
2022/04/25 10:59:24;;;;;;;2.33;2.13;;;14.30;99.90;;;;;;5108046;28;20208;-69
2022/04/25 11:01:53;;;;;;;3.20;2.70;;;14.50;99.90;;;;;;5108184;28;20206;-68
2022/04/25 11:04:21;;;;;;;3.67;2.93;;;14.70;99.90;;;;;;5108466;28;20210;-69
2022/04/25 11:06:48;;;;;;;6.73;3.07;;;14.70;99.90;;;;;;5107497;28;20230;-69
2022/04/25 11:09:39;;;;;;;4.30;3.03;;;14.80;99.90;;;;;;5108368;28;20275;-69
2022/04/25 11:12:07;;;;;;;3.03;2.77;;;14.90;99.90;;;;;;5108141;28;20640;-68
2022/04/25 11:14:33;;;;;;;4.77;2.50;;;15.00;99.90;;;;;;5108093;28;20251;-69
2022/04/25 11:17:13;;;;;;;4.37;2.70;;;15.10;99.90;;;;;;5112020;28;20739;-68
2022/04/25 11:19:48;;;;;;;3.27;2.70;;;15.00;99.90;;;;;;5112306;28;20197;-68
2022/04/25 11:22:50;;;;;;;3.37;2.80;;;15.00;99.90;;;;;;5112102;28;20206;-68
2022/04/25 11:25:39;;;;;;;3.03;2.50;;;15.20;99.90;;;;;;5111783;28;20218;-68
2022/04/25 11:28:07;;;;;;;2.97;2.50;;;15.20;99.90;;;;;;5111782;28;20674;-68
2022/04/25 11:30:34;;;;;;;2.73;2.53;;;15.30;99.90;;;;;;5111856;28;20232;-69
2022/04/25 11:33:07;;;;;;;2.70;2.50;;;15.40;99.90;;;;;;5111897;28;20210;-69
2022/04/25 11:35:34;;;;;;;3.23;2.70;;;15.50;99.90;;;;;;5111841;28;20213;-69
2022/04/25 11:38:01;;;;;;;3.73;2.40;;;15.50;99.90;;;;;;5111493;28;20256;-69
2022/04/25 11:40:28;;;;;;;3.10;2.80;;;15.60;99.90;;;;;;5111389;28;20214;-69
2022/04/25 11:42:56;;;;;;;3.30;2.93;;;15.70;99.90;;;;;;5111804;28;20233;-68
2022/04/25 11:45:23;;;;;;;5.10;3.03;;;15.80;99.90;;;;;;5111412;28;20259;-68
2022/04/25 11:47:49;;;;;;;3.10;2.50;;;15.90;99.90;;;;;;5111662;28;20275;-69
2022/04/25 11:50:21;;;;;;;4.83;2.80;;;16.00;99.90;;;;;;5111381;28;20210;-69
2022/04/25 11:52:50;;;;;;;5.43;3.17;;;16.20;99.90;;;;;;5111521;28;20297;-69
2022/04/25 11:55:18;;;;;;;3.27;2.60;;;16.30;99.90;;;;;;5111697;28;20551;-69
2022/04/25 11:57:45;;;;;;;2.93;2.73;;;16.40;99.90;;;;;;5111609;28;20206;-69
2022/04/25 12:00:15;;;;;;;4.33;2.60;;;16.50;99.90;;;;;;5111127;28;20202;-68
2022/04/25 12:02:42;;;;;;;3.63;2.53;;;16.60;99.90;;;;;;5111072;28;20206;-68
2022/04/25 12:05:10;;;;;;;3.40;3.10;;;16.70;99.90;;;;;;5111343;28;20263;-69
2022/04/25 12:15:33;;;;;;;4.83;2.80;;;16.80;99.90;;;;;;5098642;28;20790;-68
2022/04/25 12:15:55;;;;;;;3.67;3.37;;;17.20;99.90;;;;;;5110762;28;20193;-69
2022/04/25 12:18:23;;;;;;;3.23;2.90;;;17.30;99.90;;;;;;5111143;28;20206;-69
2022/04/25 12:20:51;;;;;;;3.37;3.07;;;17.20;99.90;;;;;;5110789;28;20549;-68
2022/04/25 12:23:25;;;;;;;4.17;3.07;;;17.20;99.90;;;;;;5110819;28;20227;-68
2022/04/25 12:25:53;;;;;;;7.87;3.13;;;17.20;99.90;;;;;;5110928;28;20206;-69
2022/04/25 12:28:22;;;;;;;4.43;3.00;;;17.30;99.90;;;;;;5110047;28;20315;-69
2022/04/25 12:30:52;;;;;;;3.27;3.00;;;17.40;99.90;;;;;;5110562;28;20206;-69
2022/04/25 12:33:20;;;;;;;4.03;2.90;;;17.50;99.50;;;;;;5110913;28;20217;-69
2022/04/25 12:35:48;;;;;;;4.97;3.17;;;17.60;99.80;;;;;;5110649;28;20312;-69
2022/04/25 12:38:38;;;;;;;5.63;3.27;;;17.80;99.60;;;;;;5110415;28;20244;-69
2022/04/25 12:41:08;;;;;;;3.30;3.00;;;17.90;99.10;;;;;;5110099;28;20936;-68
2022/04/25 12:43:45;;;;;;;3.57;3.00;;;18.00;99.20;;;;;;5110396;28;20295;-68
2022/04/25 12:46:14;;;;;;;3.60;2.97;;;18.10;99.00;;;;;;5110484;28;20217;-69
2022/04/25 12:48:59;;;;;;;4.10;2.73;;;18.20;99.10;;;;;;5110596;27;20255;-69
2022/04/25 12:51:27;;;;;;;4.40;2.93;;;18.40;98.80;;;;;;5110174;28;20202;-69
2022/04/25 12:53:55;;;;;;;3.67;3.30;;;18.50;98.50;;;;;;5110532;28;20198;-68
2022/04/25 12:56:25;;;;;;;3.80;2.80;;;18.50;98.50;;;;;;5110184;28;20668;-68
2022/04/25 12:58:52;;;;;;;4.57;3.47;;;18.50;98.30;;;;;;5109585;28;20292;-69
2022/04/25 13:01:30;;;;;;;2.70;2.50;;;18.50;98.20;;;;;;5110441;28;20206;-68
2022/04/25 13:04:12;;;;;;;6.03;2.87;;;18.60;97.90;;;;;;5109763;28;20752;-68
2022/04/25 13:06:39;;;;;;;3.87;3.40;;;18.50;97.90;;;;;;5109449;28;20220;-69
2022/04/25 13:09:07;;;;;;;3.77;3.17;;;18.30;97.00;;;;;;5110051;28;20691;-69
2022/04/25 13:11:35;;;;;;;6.07;3.17;;;18.00;97.30;;;;;;5110161;28;20212;-69
2022/04/25 13:14:03;;;;;;;5.20;2.90;;;17.80;97.80;;;;;;5109314;28;20198;-69
2022/04/25 13:16:30;;;;;;;3.33;2.93;;;17.70;98.00;;;;;;5109971;28;20259;-68
2022/04/25 13:18:57;;;;;;;6.17;3.13;;;17.70;98.10;;;;;;5109901;28;20202;-69
2022/04/25 13:21:24;;;;;;;3.60;3.30;;;17.50;98.10;;;;;;5109747;28;20202;-68
2022/04/25 13:23:51;;;;;;;8.23;3.10;;;17.50;98.50;;;;;;5109675;28;20225;-69
2022/04/25 13:26:19;;;;;;;6.23;3.37;;;17.60;98.20;;;;;;5109518;28;20279;-69
2022/04/25 13:28:46;;;;;;;3.97;3.00;;;17.60;97.90;;;;;;5109103;28;20206;-68
2022/04/25 13:31:13;;;;;;;3.30;2.87;;;17.50;97.80;;;;;;5109786;28;20296;-68
2022/04/25 13:33:40;;;;;;;6.33;3.23;;;17.50;98.00;;;;;;5109715;28;20210;-68
2022/04/25 13:36:07;;;;;;;2.77;2.43;;;17.40;97.90;;;;;;5109378;28;20213;-69
2022/04/25 13:38:34;;;;;;;4.70;3.10;;;17.60;98.20;;;;;;5108337;28;20233;-69
2022/04/25 13:41:02;;;;;;;4.90;2.70;;;17.70;98.00;;;;;;5109161;28;20274;-69